createdAt,value
2023-03-26T00:00:17.253Z,73
2023-03-26T00:02:47.428Z,73
2023-03-26T00:05:18.599Z,72
2023-03-26T00:07:49.723Z,73
2023-03-26T00:10:19.878Z,73
2023-03-26T00:12:50.139Z,73
2023-03-26T00:15:20.552Z,73
2023-03-26T00:17:51.914Z,72
2023-03-26T00:20:21.840Z,72
2023-03-26T00:22:52.084Z,72
2023-03-26T00:25:22.446Z,72
2023-03-26T00:27:52.728Z,72
2023-03-26T00:30:25.050Z,72
2023-03-26T00:32:54.152Z,72
2023-03-26T00:35:24.251Z,72
2023-03-26T00:37:55.968Z,73
2023-03-26T00:40:26.200Z,72
2023-03-26T00:42:57.123Z,72
2023-03-26T00:45:27.659Z,72
2023-03-26T00:47:57.964Z,73
2023-03-26T00:50:28.122Z,72
2023-03-26T00:52:58.539Z,72
2023-03-26T00:55:29.921Z,73
2023-03-26T00:58:02.152Z,73
2023-03-26T01:00:32.624Z,73
2023-03-26T01:03:04.198Z,73
2023-03-26T01:05:34.234Z,73
2023-03-26T01:08:04.816Z,73
2023-03-26T01:10:35.135Z,72
2023-03-26T01:13:05.408Z,73
2023-03-26T01:15:35.644Z,73
2023-03-26T01:18:06.534Z,73
2023-03-26T01:20:37.134Z,72
2023-03-26T01:23:07.396Z,72
2023-03-26T01:25:38.054Z,72
2023-03-26T01:28:07.725Z,72
2023-03-26T01:30:37.938Z,73
2023-03-26T01:33:08.486Z,72
2023-03-26T01:35:38.834Z,72
2023-03-26T01:38:09.597Z,72
2023-03-26T01:40:39.696Z,73
2023-03-26T01:43:10.079Z,72
2023-03-26T01:45:40.823Z,73
2023-03-26T01:48:11.458Z,72
2023-03-26T01:50:42.128Z,73
2023-03-26T01:53:12.779Z,73
2023-03-26T01:55:43.244Z,73
2023-03-26T01:58:13.792Z,73
2023-03-26T02:00:43.724Z,73
2023-03-26T02:03:14.548Z,72
2023-03-26T02:05:44.970Z,73
2023-03-26T02:08:15.210Z,73
2023-03-26T02:10:45.872Z,73
2023-03-26T02:13:16.278Z,73
2023-03-26T02:15:46.871Z,72
2023-03-26T02:18:17.560Z,73
2023-03-26T02:20:48.222Z,73
2023-03-26T02:23:18.286Z,72
2023-03-26T02:25:50.952Z,73
2023-03-26T02:28:21.904Z,73
2023-03-26T02:30:52.187Z,73
2023-03-26T02:33:22.511Z,73
2023-03-26T02:35:55.582Z,72
2023-03-26T02:38:25.761Z,72
2023-03-26T02:40:56.183Z,73
2023-03-26T02:43:26.465Z,72
2023-03-26T02:45:57.361Z,73
2023-03-26T02:48:28.124Z,73
2023-03-26T02:50:58.440Z,73
2023-03-26T02:53:34.242Z,73
2023-03-26T02:56:05.013Z,72
2023-03-26T02:58:35.960Z,73
2023-03-26T03:01:06.170Z,73
2023-03-26T03:03:36.358Z,73
2023-03-26T03:06:07.203Z,73
2023-03-26T03:08:37.213Z,73
2023-03-26T03:11:07.401Z,73
2023-03-26T03:13:38.050Z,73
2023-03-26T03:16:08.493Z,73
2023-03-26T03:18:40.506Z,73
2023-03-26T03:21:12.128Z,73
2023-03-26T03:23:42.742Z,73
2023-03-26T03:26:19.095Z,73
2023-03-26T03:28:49.665Z,73
2023-03-26T03:31:20.112Z,73
2023-03-26T03:33:50.498Z,72
2023-03-26T03:36:21.695Z,73
2023-03-26T03:38:51.554Z,73
2023-03-26T03:41:22.116Z,72
2023-03-26T03:43:52.610Z,72
2023-03-26T03:46:24.453Z,72
2023-03-26T03:48:54.769Z,72
2023-03-26T03:51:25.377Z,72
2023-03-26T03:53:55.886Z,73
2023-03-26T03:56:26.264Z,73
2023-03-26T03:58:56.165Z,74
2023-03-26T04:01:27.205Z,74
2023-03-26T04:03:57.758Z,74
2023-03-26T04:06:28.516Z,74
2023-03-26T04:08:59.097Z,75
2023-03-26T04:11:29.988Z,75
2023-03-26T04:14:00.926Z,75
2023-03-26T04:16:30.237Z,74
2023-03-26T04:19:00.710Z,74
2023-03-26T04:21:33.260Z,75
2023-03-26T04:24:03.788Z,74
2023-03-26T04:26:34.459Z,74
2023-03-26T04:29:04.714Z,74
2023-03-26T04:31:35.042Z,74
2023-03-26T04:34:04.187Z,74
2023-03-26T04:36:34.621Z,74
2023-03-26T04:39:04.880Z,74
2023-03-26T04:41:35.601Z,74
2023-03-26T04:44:06.381Z,73
2023-03-26T04:46:36.790Z,73
2023-03-26T04:49:07.417Z,74
2023-03-26T04:51:41.928Z,73
2023-03-26T04:54:12.776Z,74
2023-03-26T04:56:43.748Z,74
2023-03-26T04:59:14.194Z,74
2023-03-26T05:01:46.658Z,73
2023-03-26T05:04:17.466Z,73
2023-03-26T05:06:47.558Z,72
2023-03-26T05:09:17.935Z,73
2023-03-26T05:11:48.561Z,73
2023-03-26T05:14:18.748Z,73
2023-03-26T05:16:50.642Z,72
2023-03-26T05:19:21.600Z,72
2023-03-26T05:21:51.819Z,72
2023-03-26T05:24:22.313Z,71
2023-03-26T05:26:53.268Z,71
2023-03-26T05:29:23.450Z,71
2023-03-26T05:31:53.592Z,71
2023-03-26T05:34:23.772Z,71
2023-03-26T05:36:53.997Z,70
2023-03-26T05:39:24.892Z,70
2023-03-26T05:41:55.101Z,70
2023-03-26T05:44:25.785Z,71
2023-03-26T05:46:56.552Z,70
2023-03-26T05:49:26.977Z,71
2023-03-26T05:51:58.606Z,70
2023-03-26T05:54:30.274Z,70
2023-03-26T05:57:01.012Z,70
2023-03-26T05:59:32.578Z,70
2023-03-26T06:02:02.850Z,70
2023-03-26T06:04:33.387Z,70
2023-03-26T06:07:04.725Z,70
2023-03-26T06:09:34.921Z,70
2023-03-26T06:12:05.168Z,69
2023-03-26T06:14:35.673Z,69
2023-03-26T06:17:05.868Z,69
2023-03-26T06:19:36.465Z,69
2023-03-26T06:22:06.964Z,69
2023-03-26T06:24:38.086Z,69
2023-03-26T06:27:08.955Z,68
2023-03-26T06:29:39.054Z,67
2023-03-26T06:32:18.821Z,67
2023-03-26T06:34:39.350Z,67
2023-03-26T06:37:09.893Z,67
2023-03-26T06:39:39.996Z,66
2023-03-26T06:42:10.217Z,65
2023-03-26T06:44:41.043Z,66
2023-03-26T06:47:11.683Z,65
2023-03-26T06:49:43.641Z,65
2023-03-26T06:52:12.759Z,64
2023-03-26T06:54:42.846Z,64
2023-03-26T06:57:13.646Z,66
2023-03-26T06:59:43.652Z,64
2023-03-26T07:02:14.035Z,63
2023-03-26T07:04:44.407Z,64
2023-03-26T07:07:14.675Z,63
2023-03-26T07:09:45.405Z,62
2023-03-26T07:12:15.955Z,62
2023-03-26T07:14:46.343Z,62
2023-03-26T07:17:16.227Z,62
2023-03-26T07:19:46.290Z,61
2023-03-26T07:22:18.400Z,61
2023-03-26T07:24:49.819Z,61
2023-03-26T07:27:19.940Z,61
2023-03-26T07:29:50.720Z,60
2023-03-26T07:32:21.146Z,59
2023-03-26T07:34:52.484Z,59
2023-03-26T07:37:22.974Z,59
2023-03-26T07:39:53.103Z,59
2023-03-26T07:42:23.514Z,59
2023-03-26T07:44:54.033Z,58
2023-03-26T07:47:24.532Z,59
2023-03-26T07:49:55.110Z,58
2023-03-26T07:52:25.687Z,57
2023-03-26T07:54:57.380Z,58
2023-03-26T07:57:27.584Z,58
2023-03-26T07:59:58.111Z,58
2023-03-26T08:02:29.283Z,57
2023-03-26T08:05:00.551Z,57
2023-03-26T08:07:32.270Z,56
2023-03-26T08:10:03.602Z,55
2023-03-26T08:12:34.801Z,56
2023-03-26T08:15:05.235Z,56
2023-03-26T08:17:37.884Z,56
2023-03-26T08:20:09.826Z,55
2023-03-26T08:22:40.432Z,55
2023-03-26T08:25:11.220Z,56
2023-03-26T08:27:41.689Z,54
2023-03-26T08:30:12.531Z,52
2023-03-26T08:32:42.700Z,53
2023-03-26T08:35:13.377Z,50
2023-03-26T08:37:43.872Z,49
2023-03-26T08:40:14.678Z,49
2023-03-26T08:42:45.283Z,49
2023-03-26T08:45:15.462Z,51
2023-03-26T08:47:46.106Z,50
2023-03-26T08:50:17.097Z,50
2023-03-26T08:52:50.255Z,49
2023-03-26T08:55:20.629Z,49
2023-03-26T08:57:50.614Z,48
2023-03-26T09:00:22.211Z,47
2023-03-26T09:02:52.814Z,48
2023-03-26T09:05:22.875Z,47
2023-03-26T09:07:53.082Z,46
2023-03-26T09:10:23.390Z,46
2023-03-26T09:12:53.587Z,45
2023-03-26T09:15:24.359Z,45
2023-03-26T09:17:56.644Z,45
2023-03-26T09:20:25.180Z,43
2023-03-26T09:22:55.364Z,43
2023-03-26T09:25:25.297Z,43
2023-03-26T09:27:55.905Z,43
2023-03-26T09:30:24.806Z,46
2023-03-26T09:32:54.857Z,43
2023-03-26T09:35:25.772Z,45
2023-03-26T09:37:56.539Z,45
2023-03-26T09:40:27.071Z,43
2023-03-26T09:42:57.977Z,43
2023-03-26T09:45:28.809Z,43
2023-03-26T09:47:59.523Z,42
2023-03-26T09:50:30.288Z,43
2023-03-26T09:53:00.467Z,43
2023-03-26T09:55:31.059Z,40
2023-03-26T09:58:02.121Z,40
2023-03-26T10:00:32.542Z,41
2023-03-26T10:03:02.935Z,41
2023-03-26T10:05:33.352Z,40
2023-03-26T10:08:04.009Z,40
2023-03-26T10:10:35.173Z,40
2023-03-26T10:13:14.374Z,41
2023-03-26T10:15:36.047Z,40
2023-03-26T10:18:26.833Z,40
2023-03-26T10:20:37.679Z,40
2023-03-26T10:23:08.889Z,41
2023-03-26T10:25:38.030Z,40
2023-03-26T10:28:08.656Z,40
2023-03-26T10:30:39.439Z,39
2023-03-26T10:33:09.577Z,38
2023-03-26T10:35:40.145Z,39
2023-03-26T10:38:10.167Z,38
2023-03-26T10:40:40.748Z,37
2023-03-26T10:43:12.633Z,36
2023-03-26T10:45:41.501Z,36
2023-03-26T10:48:16.149Z,36
2023-03-26T10:50:46.358Z,37
2023-03-26T10:53:16.927Z,37
2023-03-26T10:55:47.261Z,37
2023-03-26T10:58:17.353Z,37
2023-03-26T11:00:47.846Z,36
2023-03-26T11:03:18.621Z,36
2023-03-26T11:05:48.864Z,35
2023-03-26T11:08:19.368Z,35
2023-03-26T11:10:49.874Z,35
2023-03-26T11:13:19.930Z,35
2023-03-26T11:15:49.922Z,35
2023-03-26T11:18:20.085Z,36
2023-03-26T11:20:52.214Z,36
2023-03-26T11:23:23.061Z,37
2023-03-26T11:25:53.293Z,36
2023-03-26T11:28:23.778Z,37
2023-03-26T11:30:54.391Z,37
2023-03-26T11:33:25.016Z,35
2023-03-26T11:35:55.947Z,37
2023-03-26T11:38:27.245Z,35
2023-03-26T11:40:57.815Z,36
2023-03-26T11:43:28.152Z,36
2023-03-26T11:45:58.797Z,35
2023-03-26T11:48:28.896Z,36
2023-03-26T11:50:59.561Z,35
2023-03-26T11:53:30.482Z,34
2023-03-26T11:56:02.471Z,34
2023-03-26T11:58:32.754Z,34
2023-03-26T12:01:02.831Z,34
2023-03-26T12:03:31.577Z,33
2023-03-26T12:06:01.826Z,35
2023-03-26T12:08:32.893Z,33
2023-03-26T12:11:03.240Z,34
2023-03-26T12:13:33.593Z,32
2023-03-26T12:16:03.970Z,31
2023-03-26T12:18:35.873Z,31
2023-03-26T12:21:08.189Z,32
2023-03-26T12:23:36.848Z,31
2023-03-26T12:26:07.785Z,31
2023-03-26T12:28:38.658Z,33
2023-03-26T12:31:09.370Z,34
2023-03-26T12:33:40.323Z,34
2023-03-26T12:36:10.844Z,33
2023-03-26T12:38:41.719Z,32
2023-03-26T12:42:26.071Z,33
2023-03-26T12:44:45.693Z,34
2023-03-26T12:47:54.263Z,32
2023-03-26T12:48:48.991Z,32
2023-03-26T12:51:20.078Z,31
2023-03-26T12:53:51.026Z,32
2023-03-26T12:56:22.174Z,30
2023-03-26T12:58:52.332Z,31
2023-03-26T13:01:23.486Z,31
2023-03-26T13:03:54.237Z,30
2023-03-26T13:06:24.762Z,28
2023-03-26T13:08:56.338Z,29
2023-03-26T13:11:27.307Z,30
2023-03-26T13:13:58.537Z,29
2023-03-26T13:16:29.283Z,28
2023-03-26T13:18:59.479Z,28
2023-03-26T13:21:30.847Z,28
2023-03-26T13:23:59.842Z,27
2023-03-26T13:26:30.058Z,27
2023-03-26T13:29:00.647Z,29
2023-03-26T13:31:31.413Z,29
2023-03-26T13:34:02.125Z,28
2023-03-26T13:36:33.138Z,29
2023-03-26T13:39:04.267Z,29
2023-03-26T13:41:35.133Z,29
2023-03-26T13:44:05.635Z,29
2023-03-26T13:46:35.814Z,29
2023-03-26T13:49:06.083Z,30
2023-03-26T13:51:36.326Z,29
2023-03-26T13:54:06.713Z,29
2023-03-26T13:56:36.949Z,28
2023-03-26T13:59:07.700Z,30
2023-03-26T14:01:38.256Z,29
2023-03-26T14:04:09.144Z,29
2023-03-26T14:06:39.775Z,29
2023-03-26T14:09:10.380Z,29
2023-03-26T14:11:40.823Z,30
2023-03-26T14:14:09.955Z,29
2023-03-26T14:16:40.607Z,28
2023-03-26T14:19:11.209Z,28
2023-03-26T14:21:41.668Z,27
2023-03-26T14:24:12.239Z,28
2023-03-26T14:26:42.673Z,30
2023-03-26T14:29:13.657Z,29
2023-03-26T14:31:44.600Z,29
2023-03-26T14:34:15.485Z,29
2023-03-26T14:36:46.075Z,29
2023-03-26T14:39:16.845Z,29
2023-03-26T14:41:47.478Z,32
2023-03-26T14:44:18.359Z,30
2023-03-26T14:46:48.769Z,30
2023-03-26T14:49:19.860Z,30
2023-03-26T14:51:50.102Z,30
2023-03-26T14:54:20.980Z,30
2023-03-26T14:56:51.761Z,29
2023-03-26T14:59:21.913Z,30
2023-03-26T15:01:52.677Z,31
2023-03-26T15:04:23.523Z,31
2023-03-26T15:06:54.058Z,31
2023-03-26T15:09:24.219Z,31
2023-03-26T15:11:54.744Z,30
2023-03-26T15:14:25.339Z,30
2023-03-26T15:16:55.957Z,31
2023-03-26T15:19:26.804Z,31
2023-03-26T15:21:57.219Z,30
2023-03-26T15:24:28.547Z,31
2023-03-26T15:26:58.790Z,31
2023-03-26T15:29:29.045Z,31
2023-03-26T15:31:59.307Z,32
2023-03-26T15:34:29.646Z,30
2023-03-26T15:36:59.967Z,30
2023-03-26T15:39:30.254Z,31
2023-03-26T15:42:00.658Z,30
2023-03-26T15:44:32.968Z,31
2023-03-26T15:47:01.712Z,31
2023-03-26T15:49:32.548Z,30
2023-03-26T15:52:03.119Z,31
2023-03-26T15:54:33.780Z,31
2023-03-26T15:57:03.992Z,32
2023-03-26T15:59:34.219Z,32
2023-03-26T16:02:04.457Z,32
2023-03-26T16:04:35.221Z,33
2023-03-26T16:07:05.629Z,33
2023-03-26T16:09:35.987Z,34
2023-03-26T16:12:06.399Z,33
2023-03-26T16:14:37.368Z,35
2023-03-26T16:17:07.924Z,35
2023-03-26T16:19:38.476Z,34
2023-03-26T16:22:08.791Z,34
2023-03-26T16:24:39.389Z,35
2023-03-26T16:27:10.183Z,35
2023-03-26T16:29:40.726Z,35
2023-03-26T16:32:09.358Z,35
2023-03-26T16:34:39.476Z,35
2023-03-26T16:37:09.745Z,36
2023-03-26T16:39:39.833Z,35
2023-03-26T16:42:10.737Z,36
2023-03-26T16:44:41.088Z,36
2023-03-26T16:47:11.859Z,34
2023-03-26T16:49:41.602Z,35
2023-03-26T16:52:11.683Z,35
2023-03-26T16:54:41.633Z,36
2023-03-26T16:57:12.427Z,36
2023-03-26T16:59:42.560Z,36
2023-03-26T17:02:12.655Z,36
2023-03-26T17:04:42.899Z,35
2023-03-26T17:07:12.942Z,35
2023-03-26T17:09:43.439Z,36
2023-03-26T17:12:15.487Z,35
2023-03-26T17:14:46.304Z,36
2023-03-26T17:17:16.881Z,36
2023-03-26T17:19:46.810Z,36
2023-03-26T17:22:17.425Z,36
2023-03-26T17:24:47.583Z,36
2023-03-26T17:27:18.678Z,35
2023-03-26T17:29:47.803Z,36
2023-03-26T17:32:18.047Z,36
2023-03-26T17:34:48.601Z,36
2023-03-26T17:37:19.282Z,36
2023-03-26T17:39:49.491Z,36
2023-03-26T17:42:19.793Z,36
2023-03-26T17:44:50.193Z,37
2023-03-26T17:47:20.806Z,37
2023-03-26T17:49:50.980Z,37
2023-03-26T17:52:21.537Z,38
2023-03-26T17:54:51.722Z,37
2023-03-26T17:57:21.942Z,37
2023-03-26T17:59:52.263Z,38
2023-03-26T18:02:22.706Z,37
2023-03-26T18:04:52.699Z,38
2023-03-26T18:07:23.209Z,38
2023-03-26T18:09:53.692Z,38
2023-03-26T18:12:24.377Z,38
2023-03-26T18:14:54.816Z,38
2023-03-26T18:17:25.467Z,39
2023-03-26T18:19:54.567Z,38
2023-03-26T18:22:24.785Z,39
2023-03-26T18:24:54.866Z,38
2023-03-26T18:27:25.345Z,38
2023-03-26T18:29:55.205Z,39
2023-03-26T18:32:25.613Z,39
2023-03-26T18:34:55.802Z,39
2023-03-26T18:37:26.289Z,39
2023-03-26T18:39:56.628Z,38
2023-03-26T18:42:27.342Z,39
2023-03-26T18:45:00.105Z,39
2023-03-26T18:47:28.552Z,39
2023-03-26T18:49:58.778Z,40
2023-03-26T18:52:29.169Z,39
2023-03-26T18:54:59.595Z,39
2023-03-26T18:57:29.837Z,39
2023-03-26T19:00:00.314Z,39
2023-03-26T19:02:30.677Z,40
2023-03-26T19:05:00.617Z,39
2023-03-26T19:07:30.712Z,40
2023-03-26T19:10:00.810Z,40
2023-03-26T19:12:31.023Z,40
2023-03-26T19:15:01.827Z,41
2023-03-26T19:17:32.103Z,41
2023-03-26T19:20:02.247Z,40
2023-03-26T19:22:33.302Z,41
2023-03-26T19:25:03.565Z,41
2023-03-26T19:27:33.579Z,41
2023-03-26T19:30:03.744Z,41
2023-03-26T19:32:33.928Z,42
2023-03-26T19:35:04.073Z,42
2023-03-26T19:37:34.445Z,43
2023-03-26T19:40:04.765Z,42
2023-03-26T19:42:42.781Z,43
2023-03-26T19:45:03.753Z,43
2023-03-26T19:47:46.336Z,43
2023-03-26T19:50:04.602Z,43
2023-03-26T19:52:34.896Z,43
2023-03-26T19:55:05.527Z,43
2023-03-26T19:57:36.334Z,43
2023-03-26T20:00:06.916Z,43
2023-03-26T20:02:38.040Z,43
2023-03-26T20:05:08.331Z,43
2023-03-26T20:07:38.968Z,43
2023-03-26T20:10:09.187Z,43
2023-03-26T20:12:38.001Z,43
2023-03-26T20:15:08.140Z,43
2023-03-26T20:17:38.324Z,43
2023-03-26T20:20:07.013Z,44
2023-03-26T20:22:37.035Z,44
2023-03-26T20:25:07.027Z,44
2023-03-26T20:27:37.046Z,44
2023-03-26T20:30:07.376Z,44
2023-03-26T20:32:37.563Z,44
2023-03-26T20:35:08.482Z,44
2023-03-26T20:37:38.599Z,44
2023-03-26T20:40:08.584Z,44
2023-03-26T20:42:38.880Z,44
2023-03-26T20:45:09.308Z,45
2023-03-26T20:47:39.965Z,45
2023-03-26T20:50:10.097Z,45
2023-03-26T20:52:40.293Z,46
2023-03-26T20:55:10.674Z,46
2023-03-26T20:57:40.344Z,45
2023-03-26T21:00:10.986Z,45
2023-03-26T21:02:43.239Z,46
2023-03-26T21:05:11.546Z,46
2023-03-26T21:07:41.672Z,46
2023-03-26T21:10:11.785Z,46
2023-03-26T21:12:44.748Z,47
2023-03-26T21:15:20.792Z,46
2023-03-26T21:17:43.217Z,46
2023-03-26T21:20:13.138Z,46
2023-03-26T21:22:41.679Z,47
2023-03-26T21:25:14.044Z,46
2023-03-26T21:27:44.476Z,46
2023-03-26T21:30:13.342Z,46
2023-03-26T21:32:43.915Z,46
2023-03-26T21:35:14.254Z,46
2023-03-26T21:37:44.438Z,46
2023-03-26T21:40:16.236Z,46
2023-03-26T21:42:47.376Z,46
2023-03-26T21:45:17.688Z,46
2023-03-26T21:47:47.927Z,46
2023-03-26T21:50:19.170Z,47
2023-03-26T21:52:49.365Z,47
2023-03-26T21:55:21.490Z,47
2023-03-26T21:57:52.222Z,48
2023-03-26T22:00:25.839Z,47
2023-03-26T22:02:52.820Z,47
2023-03-26T22:05:23.117Z,48
2023-03-26T22:07:53.171Z,48
2023-03-26T22:10:23.475Z,47
2023-03-26T22:12:53.720Z,47
2023-03-26T22:15:22.294Z,48
2023-03-26T22:17:52.813Z,48
2023-03-26T22:20:23.153Z,48
2023-03-26T22:22:53.164Z,47
2023-03-26T22:25:23.282Z,47
2023-03-26T22:27:54.926Z,47
2023-03-26T22:30:25.459Z,47
2023-03-26T22:32:54.371Z,48
2023-03-26T22:35:26.262Z,47
2023-03-26T22:38:00.581Z,47
2023-03-26T22:40:24.644Z,47
2023-03-26T22:42:55.928Z,47
2023-03-26T22:45:26.372Z,47
2023-03-26T22:48:03.286Z,46
2023-03-26T22:50:26.292Z,47
2023-03-26T22:52:56.835Z,47
2023-03-26T22:55:28.582Z,47
2023-03-26T22:57:57.494Z,46
2023-03-26T23:00:27.910Z,46
2023-03-26T23:02:57.029Z,46
2023-03-26T23:05:27.286Z,46
2023-03-26T23:07:57.506Z,47
2023-03-26T23:10:28.585Z,48
2023-03-26T23:12:59.176Z,48
2023-03-26T23:15:29.542Z,46
2023-03-26T23:17:59.697Z,47
2023-03-26T23:20:30.879Z,47
2023-03-26T23:23:02.131Z,47
2023-03-26T23:25:32.722Z,47
2023-03-26T23:28:03.590Z,46
2023-03-26T23:30:34.364Z,47
2023-03-26T23:33:05.234Z,46
2023-03-26T23:35:36.532Z,47
2023-03-26T23:38:07.037Z,47
2023-03-26T23:40:37.328Z,46
2023-03-26T23:43:07.919Z,46
2023-03-26T23:45:38.321Z,46
2023-03-26T23:48:07.309Z,46
2023-03-26T23:50:37.800Z,46
2023-03-26T23:53:14.469Z,46
2023-03-26T23:55:45.058Z,46
2023-03-26T23:58:15.244Z,46
